Terminal Aerodrome Forecast
Issued by NWS

Home | Current Version | Previous Version | Text Only | Print | Product List | Glossary On
Versions: 1 2 3 4 5 6 7 8 9 10 11 12 13
000
FTUS45 KVEF 230300 AAA
TAFVGT
TAF AMD
KVGT 230313Z 2303/2324 35015G25KT P6SM SKC
     FM230600 35014KT P6SM SKC
     FM231700 03011KT P6SM SKC=

USA.gov is the U.S. government's official web portal to all federal, state and local government web resources and services.